Pierrepont, New York
Current Conditions -  °F | °C
As of 9:53 AM on Friday 19 Dec 2014 (Local Time) from KMSS Reporting Station
Overcast Overcast  
Wind Chill: 12°   Ceiling: 1800
Heat Index: 22°   Visibility: 10mi
Dew Point: 15°   Wind: 9mph
Humidity: 75%   Direction: 300°WNW
Pressure: 30.14"   Gusts: NA
Location:  44.5792°N, 75.1592°W
Report Text: KMSS 191453Z AUTO 30008KT 10SM OVC018 M06/M09 A3014 RMK AO2 SLP213 T10561094 53020
Loading
Personal Weather Stations






























Interactive Weather Map New forecast layout! Learn more

10-Day Weather Forecast

Advertisements
Track Severe Weather on mobile